Time,TemperatureF,DewpointF,PressureIn,WindDirection,WindDirectionDegrees,WindSpeedMPH,WindSpeedGustMPH,Humidity,HourlyPrecipIn,Conditions,Clouds,dailyrainin,SolarRadiationWatts/m^2,SoftwareType,DateUTC
2013-10-25 00:21:00,40.0,33.0,-100.00,ESE,103,2.0,4.0,76,0.00,,,0.00,0.000000,,2013-10-25 06:21:00,
2013-10-25 00:31:00,40.0,33.0,-100.00,ESE,103,2.0,4.0,76,0.00,,,0.00,0.000000,,2013-10-25 06:31:00,
2013-10-25 00:41:00,40.0,33.0,-100.00,ESE,103,2.0,4.0,76,0.00,,,0.00,0.000000,,2013-10-25 06:41:00,
2013-10-25 00:51:00,40.0,33.0,-100.00,ESE,103,2.0,4.0,76,0.00,,,0.00,0.000000,,2013-10-25 06:51:00,
2013-10-25 01:21:00,39.0,33.0,-100.00,North,9,3.0,5.0,79,0.00,,,0.00,0.000000,,2013-10-25 07:21:00,
2013-10-25 01:31:00,39.0,33.0,-100.00,North,9,3.0,5.0,79,0.00,,,0.00,0.000000,,2013-10-25 07:31:00,
2013-10-25 01:41:00,39.0,33.0,-100.00,North,9,3.0,5.0,79,0.00,,,0.00,0.000000,,2013-10-25 07:41:00,
2013-10-25 01:51:00,39.0,33.0,-100.00,North,9,3.0,5.0,79,0.00,,,0.00,0.000000,,2013-10-25 07:51:00,
2013-10-25 02:21:00,39.0,34.0,-100.00,NNE,13,3.0,4.0,81,0.00,,,0.00,0.000000,,2013-10-25 08:21:00,
2013-10-25 02:31:00,39.0,34.0,-100.00,NNE,13,3.0,4.0,81,0.00,,,0.00,0.000000,,2013-10-25 08:31:00,
2013-10-25 02:41:00,39.0,34.0,-100.00,NNE,13,3.0,4.0,81,0.00,,,0.00,0.000000,,2013-10-25 08:41:00,
2013-10-25 02:51:00,39.0,34.0,-100.00,NNE,13,3.0,4.0,81,0.00,,,0.00,0.000000,,2013-10-25 08:51:00,
2013-10-25 03:21:00,40.0,33.0,-100.00,NNE,22,3.0,5.0,77,0.00,,,0.00,0.000000,,2013-10-25 09:21:00,
2013-10-25 03:32:00,40.0,33.0,-100.00,NNE,22,3.0,5.0,77,0.00,,,0.00,0.000000,,2013-10-25 09:32:00,
2013-10-25 03:42:00,40.0,33.0,-100.00,NNE,22,3.0,5.0,77,0.00,,,0.00,0.000000,,2013-10-25 09:42:00,
2013-10-25 03:52:00,40.0,33.0,-100.00,NNE,22,3.0,5.0,77,0.00,,,0.00,0.000000,,2013-10-25 09:52:00,
2013-10-25 04:22:00,38.0,32.0,-100.00,NNE,22,3.0,5.0,78,0.00,,,0.00,0.000000,,2013-10-25 10:22:00,
2013-10-25 04:32:00,38.0,32.0,-100.00,NNE,22,3.0,5.0,78,0.00,,,0.00,0.000000,,2013-10-25 10:32:00,
2013-10-25 04:41:00,38.0,32.0,-100.00,NNE,22,3.0,5.0,78,0.00,,,0.00,0.000000,,2013-10-25 10:41:00,
2013-10-25 04:51:00,38.0,32.0,-100.00,NNE,22,3.0,5.0,78,0.00,,,0.00,0.000000,,2013-10-25 10:51:00,
2013-10-25 05:21:00,39.0,34.0,-100.00,NNE,12,2.0,6.0,81,0.00,,,0.00,0.000000,,2013-10-25 11:21:00,
2013-10-25 05:32:00,39.0,34.0,-100.00,NNE,12,2.0,6.0,81,0.00,,,0.00,0.000000,,2013-10-25 11:32:00,
2013-10-25 05:41:00,39.0,34.0,-100.00,NNE,12,2.0,6.0,81,0.00,,,0.00,0.000000,,2013-10-25 11:41:00,
2013-10-25 05:51:00,39.0,34.0,-100.00,NNE,12,2.0,6.0,81,0.00,,,0.00,0.000000,,2013-10-25 11:51:00,
2013-10-25 06:21:00,38.0,34.0,-100.00,NNE,12,3.0,5.0,84,0.00,,,0.00,0.000000,,2013-10-25 12:21:00,
2013-10-25 06:31:00,38.0,34.0,-100.00,NNE,12,3.0,5.0,84,0.00,,,0.00,0.000000,,2013-10-25 12:31:00,
2013-10-25 06:41:00,38.0,34.0,-100.00,NNE,12,3.0,5.0,84,0.00,,,0.00,0.000000,,2013-10-25 12:41:00,
2013-10-25 06:51:00,38.0,34.0,-100.00,NNE,12,3.0,5.0,84,0.00,,,0.00,0.000000,,2013-10-25 12:51:00,
2013-10-25 07:21:00,39.0,35.0,-100.00,NNE,25,3.0,5.0,84,0.00,,,0.00,0.000000,,2013-10-25 13:21:00,
2013-10-25 07:32:00,39.0,35.0,-100.00,NNE,25,3.0,5.0,84,0.00,,,0.00,0.000000,,2013-10-25 13:32:00,
2013-10-25 07:41:00,39.0,35.0,-100.00,NNE,25,3.0,5.0,84,0.00,,,0.00,0.000000,,2013-10-25 13:41:00,
2013-10-25 07:52:00,39.0,35.0,-100.00,NNE,25,3.0,5.0,84,0.00,,,0.00,0.000000,,2013-10-25 13:52:00,
2013-10-25 08:22:00,39.0,35.0,-100.00,NNE,33,2.0,4.0,85,0.00,,,0.00,8.000000,,2013-10-25 14:22:00,
2013-10-25 08:32:00,39.0,35.0,-100.00,NNE,33,2.0,4.0,85,0.00,,,0.00,8.000000,,2013-10-25 14:32:00,
2013-10-25 08:42:00,39.0,35.0,-100.00,NNE,33,2.0,4.0,85,0.00,,,0.00,8.000000,,2013-10-25 14:42:00,
2013-10-25 08:52:00,39.0,35.0,-100.00,NNE,33,2.0,4.0,85,0.00,,,0.00,8.000000,,2013-10-25 14:52:00,
2013-10-25 09:21:00,48.0,38.0,-100.00,NNW,335,2.0,4.0,69,0.00,,,0.00,119.000000,,2013-10-25 15:21:00,
2013-10-25 09:33:00,48.0,38.0,-100.00,NNW,335,2.0,4.0,69,0.00,,,0.00,119.000000,,2013-10-25 15:33:00,
2013-10-25 10:23:00,49.0,39.0,-100.00,SSW,205,5.0,7.0,67,0.00,,,0.00,344.000000,,2013-10-25 16:23:00,
2013-10-25 10:33:00,49.0,39.0,-100.00,SSW,205,5.0,7.0,67,0.00,,,0.00,344.000000,,2013-10-25 16:33:00,
2013-10-25 10:43:00,49.0,39.0,-100.00,SSW,205,5.0,7.0,67,0.00,,,0.00,344.000000,,2013-10-25 16:43:00,
2013-10-25 10:53:00,49.0,39.0,-100.00,SSW,205,5.0,7.0,67,0.00,,,0.00,344.000000,,2013-10-25 16:53:00,
2013-10-25 11:23:00,52.0,39.0,-100.00,SSW,211,4.0,8.0,60,0.00,,,0.00,492.000000,,2013-10-25 17:23:00,
2013-10-25 11:33:00,52.0,39.0,-100.00,SSW,211,4.0,8.0,60,0.00,,,0.00,492.000000,,2013-10-25 17:33:00,
2013-10-25 11:43:00,52.0,39.0,-100.00,SSW,211,4.0,8.0,60,0.00,,,0.00,492.000000,,2013-10-25 17:43:00,
2013-10-25 11:52:00,52.0,39.0,-100.00,SSW,211,4.0,8.0,60,0.00,,,0.00,492.000000,,2013-10-25 17:52:00,
2013-10-25 12:22:00,55.0,39.0,-100.00,WSW,239,5.0,8.0,55,0.00,,,0.00,588.000000,,2013-10-25 18:22:00,
2013-10-25 12:32:00,55.0,39.0,-100.00,WSW,239,5.0,8.0,55,0.00,,,0.00,588.000000,,2013-10-25 18:32:00,
2013-10-25 12:42:00,55.0,39.0,-100.00,WSW,239,5.0,8.0,55,0.00,,,0.00,588.000000,,2013-10-25 18:42:00,
2013-10-25 12:52:00,55.0,39.0,-100.00,WSW,239,5.0,8.0,55,0.00,,,0.00,588.000000,,2013-10-25 18:52:00,
2013-10-25 13:22:00,58.0,39.0,-100.00,West,262,6.0,12.0,49,0.00,,,0.00,628.000000,,2013-10-25 19:22:00,
2013-10-25 13:32:00,58.0,39.0,-100.00,West,262,6.0,12.0,49,0.00,,,0.00,628.000000,,2013-10-25 19:32:00,
2013-10-25 13:42:00,58.0,39.0,-100.00,West,262,6.0,12.0,49,0.00,,,0.00,628.000000,,2013-10-25 19:42:00,
2013-10-25 13:52:00,58.0,39.0,-100.00,West,262,6.0,12.0,49,0.00,,,0.00,628.000000,,2013-10-25 19:52:00,
2013-10-25 14:22:00,62.0,38.0,-100.00,WNW,290,7.0,12.0,41,0.00,,,0.00,612.000000,,2013-10-25 20:22:00,
2013-10-25 14:32:00,62.0,38.0,-100.00,WNW,290,7.0,12.0,41,0.00,,,0.00,612.000000,,2013-10-25 20:32:00,
2013-10-25 14:42:00,62.0,38.0,-100.00,WNW,290,7.0,12.0,41,0.00,,,0.00,612.000000,,2013-10-25 20:42:00,
2013-10-25 14:52:00,62.0,38.0,-100.00,WNW,290,7.0,12.0,41,0.00,,,0.00,612.000000,,2013-10-25 20:52:00,
2013-10-25 15:22:00,65.0,39.0,-100.00,West,281,6.0,12.0,39,0.00,,,0.00,536.000000,,2013-10-25 21:22:00,
2013-10-25 15:34:00,65.0,39.0,-100.00,West,281,6.0,12.0,39,0.00,,,0.00,536.000000,,2013-10-25 21:34:00,
2013-10-25 15:43:00,65.0,39.0,-100.00,West,281,6.0,12.0,39,0.00,,,0.00,536.000000,,2013-10-25 21:43:00,
2013-10-25 15:54:00,65.0,39.0,-100.00,West,281,6.0,12.0,39,0.00,,,0.00,536.000000,,2013-10-25 21:54:00,
2013-10-25 16:23:00,67.0,38.0,-100.00,WNW,282,4.0,9.0,34,0.00,,,0.00,67.000000,,2013-10-25 22:23:00,
2013-10-25 16:34:00,67.0,38.0,-100.00,WNW,282,4.0,9.0,34,0.00,,,0.00,67.000000,,2013-10-25 22:34:00,
2013-10-25 16:42:00,67.0,38.0,-100.00,WNW,282,4.0,9.0,34,0.00,,,0.00,67.000000,,2013-10-25 22:42:00,
2013-10-25 16:52:00,67.0,38.0,-100.00,WNW,282,4.0,9.0,34,0.00,,,0.00,67.000000,,2013-10-25 22:52:00,
2013-10-25 17:22:00,67.0,35.0,-100.00,WNW,303,5.0,13.0,31,0.00,,,0.00,25.000000,,2013-10-25 23:22:00,
2013-10-25 17:34:00,67.0,35.0,-100.00,WNW,303,5.0,13.0,31,0.00,,,0.00,25.000000,,2013-10-25 23:34:00,
2013-10-25 17:42:00,67.0,35.0,-100.00,WNW,303,5.0,13.0,31,0.00,,,0.00,25.000000,,2013-10-25 23:42:00,
2013-10-25 17:52:00,67.0,35.0,-100.00,WNW,303,5.0,13.0,31,0.00,,,0.00,25.000000,,2013-10-25 23:52:00,
2013-10-25 18:22:00,60.0,36.0,-100.00,NNW,335,5.0,13.0,40,0.00,,,0.00,41.000000,,2013-10-26 00:22:00,
2013-10-25 18:32:00,60.0,36.0,-100.00,NNW,335,5.0,13.0,40,0.00,,,0.00,41.000000,,2013-10-26 00:32:00,
2013-10-25 18:42:00,60.0,36.0,-100.00,NNW,335,5.0,13.0,40,0.00,,,0.00,41.000000,,2013-10-26 00:42:00,
2013-10-25 18:52:00,60.0,36.0,-100.00,NNW,335,5.0,13.0,40,0.00,,,0.00,41.000000,,2013-10-26 00:52:00,
2013-10-25 19:22:00,55.0,37.0,-100.00,WSW,252,1.0,10.0,50,0.00,,,0.00,1.000000,,2013-10-26 01:22:00,
2013-10-25 19:32:00,55.0,37.0,-100.00,WSW,252,1.0,10.0,50,0.00,,,0.00,1.000000,,2013-10-26 01:32:00,
2013-10-25 19:42:00,55.0,37.0,-100.00,WSW,252,1.0,10.0,50,0.00,,,0.00,1.000000,,2013-10-26 01:42:00,
2013-10-25 19:52:00,55.0,37.0,-100.00,WSW,252,1.0,10.0,50,0.00,,,0.00,1.000000,,2013-10-26 01:52:00,
2013-10-25 20:22:00,54.0,39.0,-100.00,NNE,13,3.0,6.0,56,0.00,,,0.00,0.000000,,2013-10-26 02:22:00,
2013-10-25 20:32:00,54.0,39.0,-100.00,NNE,13,3.0,6.0,56,0.00,,,0.00,0.000000,,2013-10-26 02:32:00,
2013-10-25 20:43:00,54.0,39.0,-100.00,NNE,13,3.0,6.0,56,0.00,,,0.00,0.000000,,2013-10-26 02:43:00,
2013-10-25 20:52:00,54.0,39.0,-100.00,NNE,13,3.0,6.0,56,0.00,,,0.00,0.000000,,2013-10-26 02:52:00,
2013-10-25 21:22:00,51.0,35.0,-100.00,NNW,333,3.0,6.0,54,0.00,,,0.00,0.000000,,2013-10-26 03:22:00,
2013-10-25 21:35:00,51.0,35.0,-100.00,NNW,333,3.0,6.0,54,0.00,,,0.00,0.000000,,2013-10-26 03:35:00,
2013-10-25 21:44:00,51.0,35.0,-100.00,NNW,333,3.0,6.0,54,0.00,,,0.00,0.000000,,2013-10-26 03:44:00,
2013-10-25 21:54:00,51.0,35.0,-100.00,NNW,333,3.0,6.0,54,0.00,,,0.00,0.000000,,2013-10-26 03:54:00,
2013-10-25 22:24:00,50.0,34.0,-100.00,North,357,4.0,7.0,53,0.00,,,0.00,0.000000,,2013-10-26 04:24:00,
2013-10-25 22:33:00,50.0,34.0,-100.00,North,357,4.0,7.0,53,0.00,,,0.00,0.000000,,2013-10-26 04:33:00,
2013-10-25 22:44:00,50.0,34.0,-100.00,North,357,4.0,7.0,53,0.00,,,0.00,0.000000,,2013-10-26 04:44:00,
2013-10-25 22:54:00,50.0,34.0,-100.00,North,357,4.0,7.0,53,0.00,,,0.00,0.000000,,2013-10-26 04:54:00,
2013-10-25 23:23:00,48.0,33.0,-100.00,NNW,332,3.0,7.0,55,0.00,,,0.00,0.000000,,2013-10-26 05:23:00,
2013-10-25 23:34:00,48.0,33.0,-100.00,NNW,332,3.0,7.0,55,0.00,,,0.00,0.000000,,2013-10-26 05:34:00,
2013-10-25 23:43:00,48.0,33.0,-100.00,NNW,332,3.0,7.0,55,0.00,,,0.00,0.000000,,2013-10-26 05:43:00,
2013-10-25 23:52:00,48.0,33.0,-100.00,NNW,332,3.0,7.0,55,0.00,,,0.00,0.000000,,2013-10-26 05:52:00,